sensor_id;sensor_type;location;lat;lon;timestamp;pressure;altitude;pressure_sealevel;temperature;humidity
59831;BME280;45711;50.108;13.712;2023-04-21T00:01:43;97835.13;;;8.18;90.77
59831;BME280;45711;50.108;13.712;2023-04-21T00:04:30;97843.13;;;8.13;91.34
59831;BME280;45711;50.108;13.712;2023-04-21T00:07:07;97842.34;;;8.32;89.79
59831;BME280;45711;50.108;13.712;2023-04-21T00:09:51;97833.28;;;8.28;89.35
59831;BME280;45711;50.108;13.712;2023-04-21T00:12:26;97831.94;;;8.05;90.72
59831;BME280;45711;50.108;13.712;2023-04-21T00:15:01;97827.41;;;8.16;89.67
59831;BME280;45711;50.108;13.712;2023-04-21T00:17:38;97828.72;;;8.03;91.41
59831;BME280;45711;50.108;13.712;2023-04-21T00:20:12;97832.19;;;8.09;91.08
59831;BME280;45711;50.108;13.712;2023-04-21T00:22:38;97837.50;;;8.04;90.89
59831;BME280;45711;50.108;13.712;2023-04-21T00:25:08;97827.91;;;8.18;90.20
59831;BME280;45711;50.108;13.712;2023-04-21T00:27:49;97830.59;;;8.08;90.40
59831;BME280;45711;50.108;13.712;2023-04-21T00:30:18;97829.72;;;7.77;93.36
59831;BME280;45711;50.108;13.712;2023-04-21T00:32:51;97822.78;;;7.76;93.36
59831;BME280;45711;50.108;13.712;2023-04-21T00:38:29;97809.19;;;7.77;93.62
59831;BME280;45711;50.108;13.712;2023-04-21T00:41:10;97815.59;;;7.81;92.80
59831;BME280;45711;50.108;13.712;2023-04-21T00:44:00;97815.88;;;7.75;93.57
59831;BME280;45711;50.108;13.712;2023-04-21T00:46:32;97819.84;;;7.72;93.81
59831;BME280;45711;50.108;13.712;2023-04-21T00:49:10;97806.50;;;7.62;94.27
59831;BME280;45711;50.108;13.712;2023-04-21T00:51:41;97812.66;;;7.78;93.27
59831;BME280;45711;50.108;13.712;2023-04-21T00:54:08;97809.69;;;7.69;94.01
59831;BME280;45711;50.108;13.712;2023-04-21T00:56:39;97818.44;;;7.49;95.35
59831;BME280;45711;50.108;13.712;2023-04-21T00:59:24;97812.34;;;7.59;94.40
59831;BME280;45711;50.108;13.712;2023-04-21T01:01:52;97809.59;;;7.44;95.44
59831;BME280;45711;50.108;13.712;2023-04-21T01:04:28;97806.16;;;7.48;95.44
59831;BME280;45711;50.108;13.712;2023-04-21T01:07:05;97812.38;;;7.69;93.41
59831;BME280;45711;50.108;13.712;2023-04-21T01:09:38;97809.94;;;7.58;93.21
59831;BME280;45711;50.108;13.712;2023-04-21T01:12:08;97808.56;;;7.45;94.39
59831;BME280;45711;50.108;13.712;2023-04-21T01:14:45;97817.09;;;7.47;93.81
59831;BME280;45711;50.108;13.712;2023-04-21T01:17:13;97816.81;;;7.48;94.22
59831;BME280;45711;50.108;13.712;2023-04-21T01:19:52;97810.38;;;7.39;93.62
59831;BME280;45711;50.108;13.712;2023-04-21T01:22:22;97814.56;;;7.20;93.04
59831;BME280;45711;50.108;13.712;2023-04-21T01:24:52;97829.81;;;7.35;92.07
59831;BME280;45711;50.108;13.712;2023-04-21T01:27:20;97819.59;;;7.11;91.57
59831;BME280;45711;50.108;13.712;2023-04-21T01:29:51;97821.78;;;6.82;93.60
59831;BME280;45711;50.108;13.712;2023-04-21T01:32:23;97821.69;;;6.67;95.48
59831;BME280;45711;50.108;13.712;2023-04-21T01:34:50;97821.88;;;6.55;94.75
59831;BME280;45711;50.108;13.712;2023-04-21T01:37:20;97830.09;;;6.21;94.66
59831;BME280;45711;50.108;13.712;2023-04-21T01:39:55;97814.72;;;6.23;95.33
59831;BME280;45711;50.108;13.712;2023-04-21T01:42:32;97819.53;;;5.99;95.12
59831;BME280;45711;50.108;13.712;2023-04-21T01:45:08;97804.97;;;5.80;96.00
59831;BME280;45711;50.108;13.712;2023-04-21T01:47:36;97818.00;;;5.60;97.00
59831;BME280;45711;50.108;13.712;2023-04-21T01:50:02;97814.94;;;5.46;96.69
59831;BME280;45711;50.108;13.712;2023-04-21T01:52:37;97814.00;;;5.35;96.95
59831;BME280;45711;50.108;13.712;2023-04-21T01:55:05;97817.59;;;5.24;96.08
59831;BME280;45711;50.108;13.712;2023-04-21T01:57:31;97813.41;;;5.28;95.59
59831;BME280;45711;50.108;13.712;2023-04-21T01:59:59;97817.38;;;5.09;96.01
59831;BME280;45711;50.108;13.712;2023-04-21T02:02:25;97810.44;;;5.24;97.15
59831;BME280;45711;50.108;13.712;2023-04-21T02:04:51;97808.38;;;5.10;94.89
59831;BME280;45711;50.108;13.712;2023-04-21T02:07:17;97814.53;;;4.93;93.29
59831;BME280;45711;50.108;13.712;2023-04-21T02:09:44;97819.47;;;4.68;95.04
59831;BME280;45711;50.108;13.712;2023-04-21T02:12:14;97810.63;;;4.62;97.01
59831;BME280;45711;50.108;13.712;2023-04-21T02:14:42;97808.31;;;4.49;97.00
59831;BME280;45711;50.108;13.712;2023-04-21T02:17:13;97814.75;;;4.53;96.80
59831;BME280;45711;50.108;13.712;2023-04-21T02:19:42;97814.75;;;4.53;96.34
59831;BME280;45711;50.108;13.712;2023-04-21T02:22:08;97819.38;;;4.46;95.49
59831;BME280;45711;50.108;13.712;2023-04-21T02:24:42;97810.63;;;4.28;96.44
59831;BME280;45711;50.108;13.712;2023-04-21T02:27:10;97808.00;;;4.45;95.91
59831;BME280;45711;50.108;13.712;2023-04-21T02:29:37;97813.34;;;4.34;96.15
59831;BME280;45711;50.108;13.712;2023-04-21T02:32:09;97811.81;;;4.21;96.60
59831;BME280;45711;50.108;13.712;2023-04-21T02:34:45;97803.06;;;4.20;96.56
59831;BME280;45711;50.108;13.712;2023-04-21T02:37:11;97813.50;;;4.10;96.20
59831;BME280;45711;50.108;13.712;2023-04-21T02:39:39;97813.66;;;4.03;97.16
59831;BME280;45711;50.108;13.712;2023-04-21T02:42:07;97808.69;;;4.07;96.82
59831;BME280;45711;50.108;13.712;2023-04-21T02:44:37;97815.97;;;4.00;96.24
59831;BME280;45711;50.108;13.712;2023-04-21T02:47:05;97813.06;;;3.85;97.67
59831;BME280;45711;50.108;13.712;2023-04-21T02:49:44;97804.34;;;4.01;95.65
59831;BME280;45711;50.108;13.712;2023-04-21T02:52:14;97805.16;;;4.01;96.06
59831;BME280;45711;50.108;13.712;2023-04-21T02:54:43;97801.84;;;3.94;96.24
59831;BME280;45711;50.108;13.712;2023-04-21T02:57:37;97796.91;;;3.86;97.65
59831;BME280;45711;50.108;13.712;2023-04-21T03:00:07;97807.47;;;3.98;96.99
59831;BME280;45711;50.108;13.712;2023-04-21T03:02:41;97802.22;;;3.86;97.61
59831;BME280;45711;50.108;13.712;2023-04-21T03:05:11;97797.28;;;4.07;96.69
59831;BME280;45711;50.108;13.712;2023-04-21T03:07:43;97805.03;;;3.80;96.15
59831;BME280;45711;50.108;13.712;2023-04-21T03:10:09;97802.09;;;3.64;96.72
59831;BME280;45711;50.108;13.712;2023-04-21T03:12:41;97795.31;;;3.57;97.43
59831;BME280;45711;50.108;13.712;2023-04-21T03:15:16;97796.59;;;3.83;97.65
59831;BME280;45711;50.108;13.712;2023-04-21T03:17:59;97801.31;;;3.52;97.61
59831;BME280;45711;50.108;13.712;2023-04-21T03:20:27;97791.31;;;3.54;96.76
59831;BME280;45711;50.108;13.712;2023-04-21T03:23:11;97799.63;;;3.46;97.28
59831;BME280;45711;50.108;13.712;2023-04-21T03:25:39;97794.88;;;3.48;97.63
59831;BME280;45711;50.108;13.712;2023-04-21T03:28:33;97794.50;;;3.56;97.41
59831;BME280;45711;50.108;13.712;2023-04-21T03:31:15;97803.69;;;3.25;96.64
59831;BME280;45711;50.108;13.712;2023-04-21T03:33:41;97794.25;;;3.41;97.54
59831;BME280;45711;50.108;13.712;2023-04-21T03:36:09;97800.31;;;3.41;96.65
59831;BME280;45711;50.108;13.712;2023-04-21T03:38:35;97789.78;;;3.30;97.28
59831;BME280;45711;50.108;13.712;2023-04-21T03:43:41;97797.50;;;3.31;95.75
59831;BME280;45711;50.108;13.712;2023-04-21T03:46:19;97807.75;;;3.16;96.85
59831;BME280;45711;50.108;13.712;2023-04-21T03:48:47;97792.47;;;3.18;96.81
59831;BME280;45711;50.108;13.712;2023-04-21T03:51:13;97797.41;;;3.14;96.40
59831;BME280;45711;50.108;13.712;2023-04-21T03:53:39;97799.38;;;3.07;97.61
59831;BME280;45711;50.108;13.712;2023-04-21T03:56:05;97802.81;;;3.08;98.06
59831;BME280;45711;50.108;13.712;2023-04-21T03:58:31;97812.13;;;3.10;98.03
59831;BME280;45711;50.108;13.712;2023-04-21T04:01:00;97805.81;;;2.99;97.45
59831;BME280;45711;50.108;13.712;2023-04-21T04:03:29;97811.78;;;3.07;96.94
59831;BME280;45711;50.108;13.712;2023-04-21T04:05:57;97803.06;;;2.94;96.93
59831;BME280;45711;50.108;13.712;2023-04-21T04:08:26;97811.09;;;2.99;96.69
59831;BME280;45711;50.108;13.712;2023-04-21T04:10:51;97801.56;;;2.98;97.16
59831;BME280;45711;50.108;13.712;2023-04-21T04:13:19;97800.41;;;2.94;97.32
59831;BME280;45711;50.108;13.712;2023-04-21T04:15:47;97804.09;;;2.82;96.19
59831;BME280;45711;50.108;13.712;2023-04-21T04:18:12;97802.97;;;2.77;96.40
59831;BME280;45711;50.108;13.712;2023-04-21T04:20:39;97803.91;;;2.71;97.22
59831;BME280;45711;50.108;13.712;2023-04-21T04:23:05;97806.44;;;2.66;96.83
59831;BME280;45711;50.108;13.712;2023-04-21T04:25:31;97808.59;;;2.81;96.50
59831;BME280;45711;50.108;13.712;2023-04-21T04:28:03;97799.88;;;2.92;95.85
59831;BME280;45711;50.108;13.712;2023-04-21T04:30:29;97806.31;;;2.85;95.85
59831;BME280;45711;50.108;13.712;2023-04-21T04:32:57;97810.31;;;2.99;95.86
59831;BME280;45711;50.108;13.712;2023-04-21T04:35:25;97813.97;;;2.86;96.46
59831;BME280;45711;50.108;13.712;2023-04-21T04:37:55;97807.88;;;3.09;97.42
59831;BME280;45711;50.108;13.712;2023-04-21T04:40:24;97812.34;;;3.09;96.15
59831;BME280;45711;50.108;13.712;2023-04-21T04:42:52;97809.50;;;2.98;96.63
59831;BME280;45711;50.108;13.712;2023-04-21T04:45:19;97811.88;;;3.12;96.79
59831;BME280;45711;50.108;13.712;2023-04-21T04:47:47;97814.63;;;3.17;96.31
59831;BME280;45711;50.108;13.712;2023-04-21T04:50:13;97814.63;;;3.17;96.67
59831;BME280;45711;50.108;13.712;2023-04-21T04:52:38;97815.88;;;3.26;96.44
59831;BME280;45711;50.108;13.712;2023-04-21T04:55:10;97818.66;;;3.19;96.45
59831;BME280;45711;50.108;13.712;2023-04-21T04:57:40;97813.28;;;3.14;97.56
59831;BME280;45711;50.108;13.712;2023-04-21T05:00:08;97810.72;;;3.19;97.07
59831;BME280;45711;50.108;13.712;2023-04-21T05:02:36;97813.22;;;3.38;97.24
59831;BME280;45711;50.108;13.712;2023-04-21T05:05:02;97811.72;;;3.42;96.81
59831;BME280;45711;50.108;13.712;2023-04-21T05:07:28;97811.50;;;3.72;96.61
59831;BME280;45711;50.108;13.712;2023-04-21T05:09:53;97815.69;;;4.30;98.31
59831;BME280;45711;50.108;13.712;2023-04-21T05:12:20;97818.88;;;4.15;93.85
59831;BME280;45711;50.108;13.712;2023-04-21T05:14:46;97824.16;;;3.98;94.37
59831;BME280;45711;50.108;13.712;2023-04-21T05:17:12;97817.53;;;3.84;96.58
59831;BME280;45711;50.108;13.712;2023-04-21T05:19:40;97828.94;;;3.85;96.36
59831;BME280;45711;50.108;13.712;2023-04-21T05:22:13;97823.25;;;3.93;97.40
59831;BME280;45711;50.108;13.712;2023-04-21T05:24:42;97823.53;;;4.08;97.00
59831;BME280;45711;50.108;13.712;2023-04-21T05:27:08;97831.53;;;4.13;96.83
59831;BME280;45711;50.108;13.712;2023-04-21T05:29:35;97823.50;;;4.53;96.47
59831;BME280;45711;50.108;13.712;2023-04-21T05:32:01;97831.66;;;4.69;95.06
59831;BME280;45711;50.108;13.712;2023-04-21T05:34:27;97841.25;;;5.30;93.69
59831;BME280;45711;50.108;13.712;2023-04-21T05:36:54;97846.94;;;5.17;94.74
59831;BME280;45711;50.108;13.712;2023-04-21T05:39:26;97839.50;;;5.58;92.30
59831;BME280;45711;50.108;13.712;2023-04-21T05:41:52;97844.72;;;5.31;91.90
59831;BME280;45711;50.108;13.712;2023-04-21T05:44:17;97842.44;;;5.84;92.16
59831;BME280;45711;50.108;13.712;2023-04-21T05:46:50;97837.66;;;5.59;90.61
59831;BME280;45711;50.108;13.712;2023-04-21T05:49:32;97837.31;;;5.99;90.34
59831;BME280;45711;50.108;13.712;2023-04-21T05:52:04;97837.53;;;6.19;89.28
59831;BME280;45711;50.108;13.712;2023-04-21T05:54:39;97828.16;;;6.44;90.24
59831;BME280;45711;50.108;13.712;2023-04-21T05:57:05;97835.72;;;5.98;91.25
59831;BME280;45711;50.108;13.712;2023-04-21T06:02:31;97835.50;;;5.83;93.86
59831;BME280;45711;50.108;13.712;2023-04-21T06:04:56;97836.31;;;6.05;93.11
59831;BME280;45711;50.108;13.712;2023-04-21T06:07:46;97832.63;;;6.06;93.79
59831;BME280;45711;50.108;13.712;2023-04-21T06:10:12;97830.97;;;6.05;94.69
59831;BME280;45711;50.108;13.712;2023-04-21T06:12:38;97837.22;;;6.16;94.90
59831;BME280;45711;50.108;13.712;2023-04-21T06:15:10;97832.44;;;6.45;93.61
59831;BME280;45711;50.108;13.712;2023-04-21T06:17:40;97836.47;;;6.52;93.75
59831;BME280;45711;50.108;13.712;2023-04-21T06:20:14;97834.94;;;6.62;94.26
59831;BME280;45711;50.108;13.712;2023-04-21T06:22:47;97837.53;;;6.89;94.78
59831;BME280;45711;50.108;13.712;2023-04-21T06:25:20;97838.19;;;7.06;92.93
59831;BME280;45711;50.108;13.712;2023-04-21T06:27:54;97829.00;;;7.34;90.53
59831;BME280;45711;50.108;13.712;2023-04-21T06:30:21;97828.34;;;7.64;85.42
59831;BME280;45711;50.108;13.712;2023-04-21T06:33:06;97831.56;;;7.76;87.00
59831;BME280;45711;50.108;13.712;2023-04-21T06:35:40;97832.38;;;7.87;87.30
59831;BME280;45711;50.108;13.712;2023-04-21T06:38:12;97833.34;;;8.54;83.93
59831;BME280;45711;50.108;13.712;2023-04-21T06:40:43;97830.72;;;10.09;75.05
59831;BME280;45711;50.108;13.712;2023-04-21T06:43:14;97828.19;;;10.96;71.54
59831;BME280;45711;50.108;13.712;2023-04-21T06:45:39;97822.56;;;11.94;67.24
59831;BME280;45711;50.108;13.712;2023-04-21T06:48:12;97828.78;;;12.27;64.79
59831;BME280;45711;50.108;13.712;2023-04-21T06:50:48;97827.66;;;13.12;69.00
59831;BME280;45711;50.108;13.712;2023-04-21T06:53:14;97826.88;;;12.46;63.41
59831;BME280;45711;50.108;13.712;2023-04-21T06:55:42;97810.63;;;12.19;63.99
59831;BME280;45711;50.108;13.712;2023-04-21T06:58:45;97820.84;;;12.54;63.50
59831;BME280;45711;50.108;13.712;2023-04-21T07:01:02;97818.72;;;13.44;65.05
59831;BME280;45711;50.108;13.712;2023-04-21T07:03:42;97819.34;;;14.05;59.37
59831;BME280;45711;50.108;13.712;2023-04-21T07:06:42;97818.88;;;14.03;60.28
59831;BME280;45711;50.108;13.712;2023-04-21T07:16:52;97826.34;;;14.65;59.60
59831;BME280;45711;50.108;13.712;2023-04-21T07:19:25;97817.13;;;15.50;56.70
59831;BME280;45711;50.108;13.712;2023-04-21T07:21:55;97814.09;;;15.52;53.67
59831;BME280;45711;50.108;13.712;2023-04-21T07:24:31;97817.81;;;15.65;54.60
59831;BME280;45711;50.108;13.712;2023-04-21T07:27:24;97812.66;;;16.03;54.17
59831;BME280;45711;50.108;13.712;2023-04-21T07:30:01;97819.78;;;15.90;53.47
59831;BME280;45711;50.108;13.712;2023-04-21T07:32:35;97821.38;;;16.08;54.18
59831;BME280;45711;50.108;13.712;2023-04-21T07:35:30;97813.63;;;16.07;53.64
59831;BME280;45711;50.108;13.712;2023-04-21T07:38:06;97816.16;;;16.21;52.69
59831;BME280;45711;50.108;13.712;2023-04-21T07:40:32;97812.50;;;16.77;52.88
59831;BME280;45711;50.108;13.712;2023-04-21T07:43:00;97816.34;;;17.15;51.62
59831;BME280;45711;50.108;13.712;2023-04-21T07:45:32;97809.06;;;17.45;51.14
59831;BME280;45711;50.108;13.712;2023-04-21T07:48:00;97811.09;;;17.56;49.34
59831;BME280;45711;50.108;13.712;2023-04-21T07:50:42;97810.09;;;17.61;50.63
59831;BME280;45711;50.108;13.712;2023-04-21T07:53:08;97814.78;;;17.14;49.75
59831;BME280;45711;50.108;13.712;2023-04-21T07:55:40;97815.50;;;18.20;49.84
59831;BME280;45711;50.108;13.712;2023-04-21T07:58:14;97819.81;;;17.62;48.04
59831;BME280;45711;50.108;13.712;2023-04-21T08:00:48;97815.88;;;18.10;49.52
59831;BME280;45711;50.108;13.712;2023-04-21T08:03:26;97818.97;;;18.96;47.75
59831;BME280;45711;50.108;13.712;2023-04-21T08:06:18;97812.91;;;18.45;48.38
59831;BME280;45711;50.108;13.712;2023-04-21T08:08:50;97813.03;;;18.48;48.08
59831;BME280;45711;50.108;13.712;2023-04-21T08:11:22;97811.09;;;19.15;46.81
59831;BME280;45711;50.108;13.712;2023-04-21T08:13:48;97813.16;;;17.89;48.13
59831;BME280;45711;50.108;13.712;2023-04-21T08:16:14;97809.16;;;18.91;45.73
59831;BME280;45711;50.108;13.712;2023-04-21T08:18:40;97808.84;;;19.05;45.27
59831;BME280;45711;50.108;13.712;2023-04-21T08:21:09;97808.84;;;18.72;47.20
59831;BME280;45711;50.108;13.712;2023-04-21T08:23:34;97815.66;;;19.36;44.72
59831;BME280;45711;50.108;13.712;2023-04-21T08:26:01;97809.56;;;19.63;46.24
59831;BME280;45711;50.108;13.712;2023-04-21T08:28:26;97801.09;;;19.77;46.15
59831;BME280;45711;50.108;13.712;2023-04-21T08:30:55;97804.34;;;20.07;45.11
59831;BME280;45711;50.108;13.712;2023-04-21T08:33:24;97811.25;;;19.92;45.53
59831;BME280;45711;50.108;13.712;2023-04-21T08:35:51;97808.88;;;19.42;45.40
59831;BME280;45711;50.108;13.712;2023-04-21T08:38:20;97808.94;;;20.19;42.91
59831;BME280;45711;50.108;13.712;2023-04-21T08:40:46;97798.47;;;19.80;45.95
59831;BME280;45711;50.108;13.712;2023-04-21T08:43:15;97804.81;;;19.84;44.14
59831;BME280;45711;50.108;13.712;2023-04-21T08:45:44;97807.94;;;20.79;43.12
59831;BME280;45711;50.108;13.712;2023-04-21T08:48:22;97795.72;;;20.45;42.37
59831;BME280;45711;50.108;13.712;2023-04-21T08:50:52;97800.09;;;20.22;42.66
59831;BME280;45711;50.108;13.712;2023-04-21T08:53:20;97804.16;;;19.75;43.40
59831;BME280;45711;50.108;13.712;2023-04-21T08:56:26;97800.97;;;19.86;44.42
59831;BME280;45711;50.108;13.712;2023-04-21T09:02:57;97799.47;;;20.00;43.67
59831;BME280;45711;50.108;13.712;2023-04-21T09:05:55;97802.78;;;19.45;45.54
59831;BME280;45711;50.108;13.712;2023-04-21T09:15:29;97796.22;;;17.42;49.86
59831;BME280;45711;50.108;13.712;2023-04-21T09:22:13;97801.66;;;17.92;47.54
59831;BME280;45711;50.108;13.712;2023-04-21T09:27:53;97789.13;;;16.81;50.40
59831;BME280;45711;50.108;13.712;2023-04-21T09:41:01;97780.88;;;16.52;53.41
59831;BME280;45711;50.108;13.712;2023-04-21T11:19:43;97721.47;;;16.34;52.84
59831;BME280;45711;50.108;13.712;2023-04-21T11:25:54;97708.53;;;16.66;51.47
59831;BME280;45711;50.108;13.712;2023-04-21T11:28:44;97707.78;;;16.48;51.54
59831;BME280;45711;50.108;13.712;2023-04-21T11:31:14;97708.44;;;16.37;52.01
59831;BME280;45711;50.108;13.712;2023-04-21T11:33:56;97707.06;;;15.70;53.81
59831;BME280;45711;50.108;13.712;2023-04-21T11:36:53;97708.81;;;16.00;51.95
59831;BME280;45711;50.108;13.712;2023-04-21T11:39:20;97712.31;;;15.83;51.92
59831;BME280;45711;50.108;13.712;2023-04-21T11:41:56;97704.84;;;16.15;51.77
59831;BME280;45711;50.108;13.712;2023-04-21T11:44:54;97707.69;;;15.93;53.74
59831;BME280;45711;50.108;13.712;2023-04-21T11:47:25;97696.75;;;15.72;54.06
59831;BME280;45711;50.108;13.712;2023-04-21T11:49:52;97697.00;;;15.53;55.49
59831;BME280;45711;50.108;13.712;2023-04-21T11:52:26;97687.69;;;16.11;53.47
59831;BME280;45711;50.108;13.712;2023-04-21T11:54:57;97698.44;;;16.46;52.02
59831;BME280;45711;50.108;13.712;2023-04-21T11:57:24;97688.19;;;15.96;53.08
59831;BME280;45711;50.108;13.712;2023-04-21T11:59:50;97696.75;;;16.15;52.01
59831;BME280;45711;50.108;13.712;2023-04-21T12:02:26;97690.56;;;15.89;52.44
59831;BME280;45711;50.108;13.712;2023-04-21T12:05:00;97698.50;;;15.76;54.08
59831;BME280;45711;50.108;13.712;2023-04-21T12:07:28;97702.13;;;16.32;52.89
59831;BME280;45711;50.108;13.712;2023-04-21T12:09:55;97688.34;;;15.91;54.10
59831;BME280;45711;50.108;13.712;2023-04-21T12:12:22;97690.84;;;16.22;53.17
59831;BME280;45711;50.108;13.712;2023-04-21T12:14:58;97687.72;;;14.93;56.33
59831;BME280;45711;50.108;13.712;2023-04-21T12:17:34;97682.47;;;15.71;54.92
59831;BME280;45711;50.108;13.712;2023-04-21T12:20:09;97686.13;;;16.66;53.40
59831;BME280;45711;50.108;13.712;2023-04-21T12:22:36;97675.78;;;16.03;53.43
59831;BME280;45711;50.108;13.712;2023-04-21T12:25:11;97678.66;;;15.98;52.70
59831;BME280;45711;50.108;13.712;2023-04-21T12:27:46;97682.16;;;15.81;50.77
59831;BME280;45711;50.108;13.712;2023-04-21T12:30:13;97678.16;;;16.05;49.60
59831;BME280;45711;50.108;13.712;2023-04-21T12:32:44;97675.59;;;15.56;51.72
59831;BME280;45711;50.108;13.712;2023-04-21T12:35:11;97670.41;;;15.69;52.91
59831;BME280;45711;50.108;13.712;2023-04-21T12:37:41;97678.34;;;16.00;51.54
59831;BME280;45711;50.108;13.712;2023-04-21T12:40:10;97672.28;;;16.20;50.27
59831;BME280;45711;50.108;13.712;2023-04-21T12:42:35;97670.88;;;15.97;52.87
59831;BME280;45711;50.108;13.712;2023-04-21T12:45:02;97672.59;;;16.10;51.54
59831;BME280;45711;50.108;13.712;2023-04-21T12:47:31;97668.16;;;15.62;53.08
59831;BME280;45711;50.108;13.712;2023-04-21T12:49:57;97668.75;;;16.37;49.43
59831;BME280;45711;50.108;13.712;2023-04-21T12:52:23;97671.31;;;16.25;50.74
59831;BME280;45711;50.108;13.712;2023-04-21T12:54:53;97677.38;;;15.78;50.73
59831;BME280;45711;50.108;13.712;2023-04-21T12:57:24;97668.41;;;15.17;54.33
59831;BME280;45711;50.108;13.712;2023-04-21T12:59:50;97665.66;;;14.91;55.15
59831;BME280;45711;50.108;13.712;2023-04-21T13:02:16;97661.41;;;14.99;53.32
59831;BME280;45711;50.108;13.712;2023-04-21T13:04:49;97661.59;;;15.11;51.86
59831;BME280;45711;50.108;13.712;2023-04-21T13:07:15;97656.81;;;16.47;48.06
59831;BME280;45711;50.108;13.712;2023-04-21T13:09:46;97661.16;;;16.13;48.46
59831;BME280;45711;50.108;13.712;2023-04-21T13:12:13;97663.22;;;16.80;49.39
59831;BME280;45711;50.108;13.712;2023-04-21T13:14:39;97657.97;;;16.28;48.35
59831;BME280;45711;50.108;13.712;2023-04-21T13:17:05;97663.00;;;16.47;46.69
59831;BME280;45711;50.108;13.712;2023-04-21T13:19:40;97662.75;;;16.14;48.54
59831;BME280;45711;50.108;13.712;2023-04-21T13:22:11;97670.41;;;16.68;47.56
59831;BME280;45711;50.108;13.712;2023-04-21T13:24:38;97657.84;;;16.07;50.17
59831;BME280;45711;50.108;13.712;2023-04-21T13:27:14;97662.13;;;16.00;49.78
59831;BME280;45711;50.108;13.712;2023-04-21T13:29:44;97655.75;;;15.44;51.21
59831;BME280;45711;50.108;13.712;2023-04-21T13:32:16;97649.25;;;15.45;52.04
59831;BME280;45711;50.108;13.712;2023-04-21T13:34:42;97648.47;;;15.44;52.07
59831;BME280;45711;50.108;13.712;2023-04-21T13:37:09;97644.38;;;15.81;52.45
59831;BME280;45711;50.108;13.712;2023-04-21T13:40:14;97640.28;;;16.40;49.70
59831;BME280;45711;50.108;13.712;2023-04-21T13:46:10;97628.22;;;16.46;48.26
59831;BME280;45711;50.108;13.712;2023-04-21T13:48:36;97618.81;;;15.79;52.09
59831;BME280;45711;50.108;13.712;2023-04-21T13:51:01;97625.94;;;16.01;51.39
59831;BME280;45711;50.108;13.712;2023-04-21T14:00:23;97612.66;;;17.31;44.78
59831;BME280;45711;50.108;13.712;2023-04-21T14:03:25;97599.78;;;16.40;48.20
59831;BME280;45711;50.108;13.712;2023-04-21T14:06:04;97609.25;;;16.16;48.90
59831;BME280;45711;50.108;13.712;2023-04-21T14:11:53;97598.78;;;15.97;50.72
59831;BME280;45711;50.108;13.712;2023-04-21T14:14:34;97608.13;;;16.17;46.67
59831;BME280;45711;50.108;13.712;2023-04-21T14:20:18;97595.25;;;16.14;45.31
59831;BME280;45711;50.108;13.712;2023-04-21T14:22:52;97606.47;;;16.42;43.16
59831;BME280;45711;50.108;13.712;2023-04-21T14:25:30;97600.59;;;15.50;50.66
59831;BME280;45711;50.108;13.712;2023-04-21T14:27:56;97594.81;;;16.03;44.86
59831;BME280;45711;50.108;13.712;2023-04-21T14:30:21;97602.16;;;15.86;47.81
59831;BME280;45711;50.108;13.712;2023-04-21T14:32:47;97592.34;;;15.38;50.94
59831;BME280;45711;50.108;13.712;2023-04-21T14:35:14;97596.63;;;15.73;48.14
59831;BME280;45711;50.108;13.712;2023-04-21T14:40:59;97586.63;;;15.74;50.94
59831;BME280;45711;50.108;13.712;2023-04-21T14:43:27;97589.03;;;16.22;46.47
59831;BME280;45711;50.108;13.712;2023-04-21T14:45:53;97586.69;;;16.89;44.94
59831;BME280;45711;50.108;13.712;2023-04-21T14:48:21;97579.25;;;16.09;51.15
59831;BME280;45711;50.108;13.712;2023-04-21T14:50:58;97579.78;;;15.59;51.31
59831;BME280;45711;50.108;13.712;2023-04-21T14:54:04;97580.91;;;15.67;46.85
59831;BME280;45711;50.108;13.712;2023-04-21T14:57:19;97567.16;;;16.53;43.84
59831;BME280;45711;50.108;13.712;2023-04-21T14:59:48;97569.78;;;15.94;50.11
59831;BME280;45711;50.108;13.712;2023-04-21T15:02:18;97576.53;;;16.56;44.90
59831;BME280;45711;50.108;13.712;2023-04-21T15:04:52;97578.03;;;15.98;46.94
59831;BME280;45711;50.108;13.712;2023-04-21T15:10:45;97569.03;;;15.42;46.82
59831;BME280;45711;50.108;13.712;2023-04-21T15:13:14;97562.84;;;15.41;47.11
59831;BME280;45711;50.108;13.712;2023-04-21T15:15:48;97566.16;;;15.29;50.30
59831;BME280;45711;50.108;13.712;2023-04-21T15:18:21;97568.53;;;15.66;48.34
59831;BME280;45711;50.108;13.712;2023-04-21T15:21:15;97559.81;;;15.69;46.10
59831;BME280;45711;50.108;13.712;2023-04-21T15:23:44;97557.13;;;15.43;48.80
59831;BME280;45711;50.108;13.712;2023-04-21T15:26:43;97552.19;;;16.26;42.73
59831;BME280;45711;50.108;13.712;2023-04-21T15:50:39;97556.50;;;16.57;44.44
59831;BME280;45711;50.108;13.712;2023-04-21T15:51:49;97550.53;;;16.43;43.21
59831;BME280;45711;50.108;13.712;2023-04-21T15:54:18;97545.59;;;16.06;48.00
59831;BME280;45711;50.108;13.712;2023-04-21T15:56:54;97548.00;;;15.99;47.34
59831;BME280;45711;50.108;13.712;2023-04-21T15:59:20;97549.19;;;16.19;42.83
59831;BME280;45711;50.108;13.712;2023-04-21T16:01:59;97543.81;;;15.20;50.74
59831;BME280;45711;50.108;13.712;2023-04-21T16:04:26;97539.63;;;15.83;46.93
59831;BME280;45711;50.108;13.712;2023-04-21T16:06:59;97533.31;;;15.45;47.22
59831;BME280;45711;50.108;13.712;2023-04-21T16:09:25;97539.00;;;15.61;49.00
59831;BME280;45711;50.108;13.712;2023-04-21T16:12:13;97534.72;;;15.86;49.08
59831;BME280;45711;50.108;13.712;2023-04-21T16:14:47;97533.38;;;16.00;45.35
59831;BME280;45711;50.108;13.712;2023-04-21T16:17:25;97529.81;;;15.53;45.43
59831;BME280;45711;50.108;13.712;2023-04-21T16:19:53;97533.97;;;15.68;46.82
59831;BME280;45711;50.108;13.712;2023-04-21T16:22:19;97530.22;;;15.98;44.46
59831;BME280;45711;50.108;13.712;2023-04-21T16:24:51;97535.69;;;15.72;47.86
59831;BME280;45711;50.108;13.712;2023-04-21T16:27:31;97521.56;;;16.22;44.58
59831;BME280;45711;50.108;13.712;2023-04-21T16:30:07;97520.78;;;16.51;44.10